sensor_id;sensor_type;location;lat;lon;timestamp;pressure;altitude;pressure_sealevel;temperature;humidity
14295;BME280;7231;59.370;18.016;2023-05-11T00:01:03;101938.72;;;9.46;50.49
14295;BME280;7231;59.370;18.016;2023-05-11T00:03:31;101947.41;;;9.44;50.38
14295;BME280;7231;59.370;18.016;2023-05-11T00:05:59;101932.88;;;9.33;50.53
14295;BME280;7231;59.370;18.016;2023-05-11T00:08:27;101803.41;;;8.57;50.40
14295;BME280;7231;59.370;18.016;2023-05-11T00:10:55;101935.50;;;9.33;50.51
14295;BME280;7231;59.370;18.016;2023-05-11T00:13:24;101952.25;;;9.37;50.73
14295;BME280;7231;59.370;18.016;2023-05-11T00:15:52;101950.38;;;9.34;50.42
14295;BME280;7231;59.370;18.016;2023-05-11T00:18:20;101952.75;;;9.30;50.42
14295;BME280;7231;59.370;18.016;2023-05-11T00:20:48;101953.59;;;9.29;50.72
14295;BME280;7231;59.370;18.016;2023-05-11T00:23:16;101950.97;;;9.29;50.90
14295;BME280;7231;59.370;18.016;2023-05-11T00:25:44;101887.19;;;8.93;50.78
14295;BME280;7231;59.370;18.016;2023-05-11T00:28:12;101957.19;;;9.31;50.64
14295;BME280;7231;59.370;18.016;2023-05-11T00:30:41;101942.28;;;9.30;50.80
14295;BME280;7231;59.370;18.016;2023-05-11T00:33:10;101953.59;;;9.29;50.37
14295;BME280;7231;59.370;18.016;2023-05-11T00:35:39;101944.75;;;9.27;50.74
14295;BME280;7231;59.370;18.016;2023-05-11T00:38:07;101925.50;;;9.08;50.72
14295;BME280;7231;59.370;18.016;2023-05-11T00:40:35;101951.72;;;9.26;50.87
14295;BME280;7231;59.370;18.016;2023-05-11T00:43:03;101951.72;;;9.26;50.98
14295;BME280;7231;59.370;18.016;2023-05-11T00:45:31;101955.16;;;9.25;50.62
14295;BME280;7231;59.370;18.016;2023-05-11T00:48:00;101955.97;;;9.24;50.57
14295;BME280;7231;59.370;18.016;2023-05-11T00:50:29;101946.81;;;9.16;50.81
14295;BME280;7231;59.370;18.016;2023-05-11T00:52:57;101946.97;;;9.19;50.80
14295;BME280;7231;59.370;18.016;2023-05-11T00:55:26;101951.25;;;9.17;50.62
14295;BME280;7231;59.370;18.016;2023-05-11T00:57:54;101945.09;;;9.17;50.55
14295;BME280;7231;59.370;18.016;2023-05-11T01:00:22;101949.38;;;9.15;51.00
14295;BME280;7231;59.370;18.016;2023-05-11T01:02:50;101949.38;;;9.15;51.05
14295;BME280;7231;59.370;18.016;2023-05-11T01:05:21;101943.91;;;9.10;50.92
14295;BME280;7231;59.370;18.016;2023-05-11T01:08:01;101945.53;;;9.08;51.16
14295;BME280;7231;59.370;18.016;2023-05-11T01:10:37;101916.38;;;8.84;50.92
14295;BME280;7231;59.370;18.016;2023-05-11T01:13:13;101948.81;;;9.04;51.22
14295;BME280;7231;59.370;18.016;2023-05-11T01:15:47;101940.66;;;8.98;51.37
14295;BME280;7231;59.370;18.016;2023-05-11T01:18:20;101951.44;;;9.04;51.22
14295;BME280;7231;59.370;18.016;2023-05-11T01:20:54;101952.16;;;9.01;51.23
14295;BME280;7231;59.370;18.016;2023-05-11T01:23:42;101942.84;;;8.90;51.68
14295;BME280;7231;59.370;18.016;2023-05-11T01:26:43;101954.53;;;8.97;51.90
14295;BME280;7231;59.370;18.016;2023-05-11T01:29:32;101958.72;;;8.93;51.83
14295;BME280;7231;59.370;18.016;2023-05-11T01:32:14;101953.81;;;8.83;51.86
14295;BME280;7231;59.370;18.016;2023-05-11T01:34:44;101915.19;;;8.61;51.78
14295;BME280;7231;59.370;18.016;2023-05-11T01:37:14;101937.47;;;8.71;52.30
14295;BME280;7231;59.370;18.016;2023-05-11T01:39:49;101940.34;;;8.75;52.76
14295;BME280;7231;59.370;18.016;2023-05-11T01:42:21;101953.56;;;8.78;52.87
14295;BME280;7231;59.370;18.016;2023-05-11T01:44:53;101953.50;;;8.77;52.53
14295;BME280;7231;59.370;18.016;2023-05-11T01:47:25;101951.69;;;8.76;53.06
14295;BME280;7231;59.370;18.016;2023-05-11T01:49:56;101957.59;;;8.72;53.07
14295;BME280;7231;59.370;18.016;2023-05-11T01:52:25;101929.41;;;8.50;53.18
14295;BME280;7231;59.370;18.016;2023-05-11T01:54:54;101935.03;;;8.41;53.85
14295;BME280;7231;59.370;18.016;2023-05-11T01:57:24;101960.50;;;8.45;53.89
14295;BME280;7231;59.370;18.016;2023-05-11T01:59:52;101947.75;;;8.35;54.15
14295;BME280;7231;59.370;18.016;2023-05-11T02:02:25;101961.88;;;8.39;54.28
14295;BME280;7231;59.370;18.016;2023-05-11T02:04:54;101934.06;;;8.25;54.71
14295;BME280;7231;59.370;18.016;2023-05-11T02:07:23;101948.50;;;8.33;54.30
14295;BME280;7231;59.370;18.016;2023-05-11T02:09:52;101957.56;;;8.39;54.63
14295;BME280;7231;59.370;18.016;2023-05-11T02:12:22;101960.63;;;8.32;55.02
14295;BME280;7231;59.370;18.016;2023-05-11T02:14:52;101971.34;;;8.37;54.53
14295;BME280;7231;59.370;18.016;2023-05-11T02:17:21;101962.69;;;8.38;54.83
14295;BME280;7231;59.370;18.016;2023-05-11T02:19:52;101955.69;;;8.37;54.54
14295;BME280;7231;59.370;18.016;2023-05-11T02:22:21;101976.09;;;8.44;54.29
14295;BME280;7231;59.370;18.016;2023-05-11T02:24:51;101968.19;;;8.42;54.59
14295;BME280;7231;59.370;18.016;2023-05-11T02:27:19;101966.47;;;8.43;54.16
14295;BME280;7231;59.370;18.016;2023-05-11T02:29:47;101968.19;;;8.42;54.35
14295;BME280;7231;59.370;18.016;2023-05-11T02:32:17;101975.03;;;8.40;54.53
14295;BME280;7231;59.370;18.016;2023-05-11T02:34:51;101973.97;;;8.37;54.59
14295;BME280;7231;59.370;18.016;2023-05-11T02:37:24;101961.09;;;8.25;55.12
14295;BME280;7231;59.370;18.016;2023-05-11T02:39:57;101976.13;;;8.29;54.70
14295;BME280;7231;59.370;18.016;2023-05-11T02:42:27;101978.66;;;8.28;54.90
14295;BME280;7231;59.370;18.016;2023-05-11T02:44:59;101970.00;;;8.29;54.90
14295;BME280;7231;59.370;18.016;2023-05-11T02:47:30;101960.19;;;8.25;55.04
14295;BME280;7231;59.370;18.016;2023-05-11T02:50:02;101970.00;;;8.29;55.54
14295;BME280;7231;59.370;18.016;2023-05-11T02:52:33;101925.94;;;8.04;55.35
14295;BME280;7231;59.370;18.016;2023-05-11T02:55:03;101977.13;;;8.31;56.03
14295;BME280;7231;59.370;18.016;2023-05-11T02:57:32;101977.22;;;8.33;55.42
14295;BME280;7231;59.370;18.016;2023-05-11T03:00:00;101940.50;;;8.15;56.05
14295;BME280;7231;59.370;18.016;2023-05-11T03:02:29;101981.81;;;8.37;56.22
14295;BME280;7231;59.370;18.016;2023-05-11T03:04:57;101977.56;;;8.39;55.91
14295;BME280;7231;59.370;18.016;2023-05-11T03:07:25;101980.34;;;8.42;56.00
14295;BME280;7231;59.370;18.016;2023-05-11T03:09:55;101982.97;;;8.42;56.59
14295;BME280;7231;59.370;18.016;2023-05-11T03:12:25;101982.88;;;8.40;56.51
14295;BME280;7231;59.370;18.016;2023-05-11T03:14:57;101992.94;;;8.49;56.21
14295;BME280;7231;59.370;18.016;2023-05-11T03:17:26;101926.72;;;8.18;55.88
14295;BME280;7231;59.370;18.016;2023-05-11T03:19:55;101985.59;;;8.58;55.40
14295;BME280;7231;59.370;18.016;2023-05-11T03:22:25;101983.25;;;8.63;55.40
14295;BME280;7231;59.370;18.016;2023-05-11T03:24:55;102001.78;;;8.67;55.75
14295;BME280;7231;59.370;18.016;2023-05-11T03:27:23;101960.28;;;8.57;55.43
14295;BME280;7231;59.370;18.016;2023-05-11T03:29:53;101988.97;;;8.72;55.32
14295;BME280;7231;59.370;18.016;2023-05-11T03:32:22;101927.09;;;8.40;55.51
14295;BME280;7231;59.370;18.016;2023-05-11T03:34:51;101942.63;;;8.53;55.44
14295;BME280;7231;59.370;18.016;2023-05-11T03:37:19;101989.44;;;8.81;55.76
14295;BME280;7231;59.370;18.016;2023-05-11T03:39:51;101932.09;;;8.52;55.37
14295;BME280;7231;59.370;18.016;2023-05-11T03:42:24;101991.75;;;8.91;55.30
14295;BME280;7231;59.370;18.016;2023-05-11T03:44:53;101991.09;;;8.95;55.41
14295;BME280;7231;59.370;18.016;2023-05-11T03:47:25;101926.63;;;8.63;55.06
14295;BME280;7231;59.370;18.016;2023-05-11T03:49:54;101858.47;;;8.28;55.32
14295;BME280;7231;59.370;18.016;2023-05-11T03:52:22;101989.19;;;9.09;55.26
14295;BME280;7231;59.370;18.016;2023-05-11T03:54:51;101992.22;;;9.17;54.94
14295;BME280;7231;59.370;18.016;2023-05-11T03:57:19;101999.63;;;9.25;55.04
14295;BME280;7231;59.370;18.016;2023-05-11T03:59:48;101981.47;;;9.28;54.77
14295;BME280;7231;59.370;18.016;2023-05-11T04:02:16;101972.13;;;9.33;54.48
14295;BME280;7231;59.370;18.016;2023-05-11T04:04:44;101978.97;;;9.48;54.13
14295;BME280;7231;59.370;18.016;2023-05-11T04:07:12;101990.38;;;9.66;54.29
14295;BME280;7231;59.370;18.016;2023-05-11T04:09:40;101989.94;;;9.74;53.88
14295;BME280;7231;59.370;18.016;2023-05-11T04:12:08;101983.44;;;9.84;53.70
14295;BME280;7231;59.370;18.016;2023-05-11T04:14:36;101985.75;;;9.96;53.30
14295;BME280;7231;59.370;18.016;2023-05-11T04:17:06;101990.59;;;10.06;53.07
14295;BME280;7231;59.370;18.016;2023-05-11T04:19:34;101992.78;;;10.15;53.00
14295;BME280;7231;59.370;18.016;2023-05-11T04:22:01;101974.28;;;10.12;52.69
14295;BME280;7231;59.370;18.016;2023-05-11T04:24:29;101988.31;;;10.30;52.54
14295;BME280;7231;59.370;18.016;2023-05-11T04:26:57;101989.47;;;10.36;52.49
14295;BME280;7231;59.370;18.016;2023-05-11T04:29:25;101993.34;;;10.45;52.08
14295;BME280;7231;59.370;18.016;2023-05-11T04:31:53;101991.13;;;10.54;52.06
14295;BME280;7231;59.370;18.016;2023-05-11T04:34:23;101993.28;;;10.62;52.16
14295;BME280;7231;59.370;18.016;2023-05-11T04:36:51;101989.00;;;10.64;51.53
14295;BME280;7231;59.370;18.016;2023-05-11T04:39:19;102000.97;;;10.77;51.48
14295;BME280;7231;59.370;18.016;2023-05-11T04:41:47;101990.59;;;10.80;51.34
14295;BME280;7231;59.370;18.016;2023-05-11T04:44:15;101988.41;;;10.89;51.13
14295;BME280;7231;59.370;18.016;2023-05-11T04:46:43;101947.47;;;10.73;50.91
14295;BME280;7231;59.370;18.016;2023-05-11T04:49:11;101982.81;;;11.01;51.08
14295;BME280;7231;59.370;18.016;2023-05-11T04:51:40;101972.16;;;10.98;50.72
14295;BME280;7231;59.370;18.016;2023-05-11T04:54:08;101998.13;;;11.11;50.73
14295;BME280;7231;59.370;18.016;2023-05-11T04:56:36;101979.75;;;11.11;50.67
14295;BME280;7231;59.370;18.016;2023-05-11T04:59:06;101971.94;;;11.13;50.86
14295;BME280;7231;59.370;18.016;2023-05-11T05:01:34;101984.78;;;11.26;50.39
14295;BME280;7231;59.370;18.016;2023-05-11T05:04:03;101978.91;;;11.31;50.06
14295;BME280;7231;59.370;18.016;2023-05-11T05:06:30;101993.31;;;11.41;50.22
14295;BME280;7231;59.370;18.016;2023-05-11T05:09:02;101972.09;;;11.36;50.23
14295;BME280;7231;59.370;18.016;2023-05-11T05:11:30;101993.91;;;11.55;49.93
14295;BME280;7231;59.370;18.016;2023-05-11T05:14:00;101962.75;;;11.43;49.64
14295;BME280;7231;59.370;18.016;2023-05-11T05:16:28;101982.00;;;11.63;49.33
14295;BME280;7231;59.370;18.016;2023-05-11T05:18:58;101992.88;;;11.72;49.07
14295;BME280;7231;59.370;18.016;2023-05-11T05:21:26;102008.44;;;11.87;48.84
14295;BME280;7231;59.370;18.016;2023-05-11T05:23:54;101989.84;;;11.82;48.76
14295;BME280;7231;59.370;18.016;2023-05-11T05:26:23;101984.00;;;11.89;48.69
14295;BME280;7231;59.370;18.016;2023-05-11T05:28:59;102008.47;;;12.09;48.52
14295;BME280;7231;59.370;18.016;2023-05-11T05:31:35;101994.50;;;12.10;48.28
14295;BME280;7231;59.370;18.016;2023-05-11T05:34:05;101982.25;;;12.11;48.42
14295;BME280;7231;59.370;18.016;2023-05-11T05:36:42;101999.75;;;12.32;48.26
14295;BME280;7231;59.370;18.016;2023-05-11T05:39:10;101995.59;;;12.38;48.35
14295;BME280;7231;59.370;18.016;2023-05-11T05:41:39;102002.16;;;12.49;48.10
14295;BME280;7231;59.370;18.016;2023-05-11T05:44:09;102006.03;;;12.58;48.03
14295;BME280;7231;59.370;18.016;2023-05-11T05:46:37;102008.13;;;12.67;47.89
14295;BME280;7231;59.370;18.016;2023-05-11T05:49:05;101959.16;;;12.48;47.59
14295;BME280;7231;59.370;18.016;2023-05-11T05:51:33;102003.38;;;12.81;47.40
14295;BME280;7231;59.370;18.016;2023-05-11T05:54:01;102006.31;;;12.88;47.48
14295;BME280;7231;59.370;18.016;2023-05-11T05:56:29;102002.22;;;12.96;47.44
14295;BME280;7231;59.370;18.016;2023-05-11T05:58:59;102004.31;;;13.07;47.22
14295;BME280;7231;59.370;18.016;2023-05-11T06:01:26;102001.13;;;13.15;46.93
14295;BME280;7231;59.370;18.016;2023-05-11T06:03:54;101995.09;;;13.18;46.82
14295;BME280;7231;59.370;18.016;2023-05-11T06:06:23;101985.66;;;13.24;46.84
14295;BME280;7231;59.370;18.016;2023-05-11T06:08:51;101991.31;;;13.35;46.59
14295;BME280;7231;59.370;18.016;2023-05-11T06:11:19;102009.13;;;13.42;46.30
14295;BME280;7231;59.370;18.016;2023-05-11T06:13:48;102006.97;;;13.56;46.25
14295;BME280;7231;59.370;18.016;2023-05-11T06:16:17;101990.31;;;13.57;45.85
14295;BME280;7231;59.370;18.016;2023-05-11T06:18:45;102004.06;;;13.74;45.36
14295;BME280;7231;59.370;18.016;2023-05-11T06:21:13;102006.16;;;13.84;45.66
14295;BME280;7231;59.370;18.016;2023-05-11T06:23:41;101989.34;;;13.80;45.23
14295;BME280;7231;59.370;18.016;2023-05-11T06:26:09;101996.88;;;13.95;45.28
14295;BME280;7231;59.370;18.016;2023-05-11T06:28:37;102001.56;;;14.04;45.22
14295;BME280;7231;59.370;18.016;2023-05-11T06:31:05;101986.66;;;14.06;44.74
14295;BME280;7231;59.370;18.016;2023-05-11T06:33:35;101996.91;;;14.23;44.63
14295;BME280;7231;59.370;18.016;2023-05-11T06:36:03;101984.56;;;14.22;44.58
14295;BME280;7231;59.370;18.016;2023-05-11T06:38:32;102007.16;;;14.41;44.35
14295;BME280;7231;59.370;18.016;2023-05-11T06:41:00;102002.72;;;14.40;44.34
14295;BME280;7231;59.370;18.016;2023-05-11T06:43:28;102005.00;;;14.56;44.05
14295;BME280;7231;59.370;18.016;2023-05-11T06:45:56;102009.66;;;14.65;44.04
14295;BME280;7231;59.370;18.016;2023-05-11T06:48:24;102007.31;;;14.74;43.76
14295;BME280;7231;59.370;18.016;2023-05-11T06:50:57;102007.56;;;14.83;43.79
14295;BME280;7231;59.370;18.016;2023-05-11T06:53:24;102018.53;;;14.97;43.56
14295;BME280;7231;59.370;18.016;2023-05-11T06:55:53;102009.19;;;15.08;43.34
14295;BME280;7231;59.370;18.016;2023-05-11T06:58:21;101993.44;;;15.13;43.09
14295;BME280;7231;59.370;18.016;2023-05-11T07:00:49;101999.16;;;15.28;43.04
14295;BME280;7231;59.370;18.016;2023-05-11T07:03:17;102005.03;;;15.49;42.71
14295;BME280;7231;59.370;18.016;2023-05-11T07:05:45;101985.69;;;15.52;42.42
14295;BME280;7231;59.370;18.016;2023-05-11T07:08:14;102004.88;;;15.78;42.12
14295;BME280;7231;59.370;18.016;2023-05-11T07:10:42;102002.53;;;15.90;41.91
14295;BME280;7231;59.370;18.016;2023-05-11T07:13:10;102000.16;;;16.01;41.71
14295;BME280;7231;59.370;18.016;2023-05-11T07:15:38;102003.25;;;16.19;41.55
14295;BME280;7231;59.370;18.016;2023-05-11T07:18:07;102017.19;;;16.49;42.03
14295;BME280;7231;59.370;18.016;2023-05-11T07:20:35;102015.41;;;16.87;42.16
14295;BME280;7231;59.370;18.016;2023-05-11T07:23:03;102015.72;;;17.48;41.95
14295;BME280;7231;59.370;18.016;2023-05-11T07:25:32;102005.38;;;18.13;40.56
14295;BME280;7231;59.370;18.016;2023-05-11T07:28:00;102017.84;;;18.79;40.35
14295;BME280;7231;59.370;18.016;2023-05-11T07:30:29;102013.28;;;19.43;39.05
14295;BME280;7231;59.370;18.016;2023-05-11T07:32:57;102021.69;;;19.83;37.98
14295;BME280;7231;59.370;18.016;2023-05-11T07:35:25;102007.59;;;19.96;37.29
14295;BME280;7231;59.370;18.016;2023-05-11T07:37:53;102008.66;;;20.21;36.86
14295;BME280;7231;59.370;18.016;2023-05-11T07:40:21;102015.16;;;20.58;36.05
14295;BME280;7231;59.370;18.016;2023-05-11T07:42:50;102010.78;;;20.70;35.41
14295;BME280;7231;59.370;18.016;2023-05-11T07:45:19;102022.34;;;20.74;34.91
14295;BME280;7231;59.370;18.016;2023-05-11T07:47:47;102016.16;;;20.80;34.93
14295;BME280;7231;59.370;18.016;2023-05-11T07:50:16;102005.59;;;21.12;34.81
14295;BME280;7231;59.370;18.016;2023-05-11T07:52:44;102000.41;;;21.63;34.29
14295;BME280;7231;59.370;18.016;2023-05-11T07:55:12;102022.66;;;21.97;33.82
14295;BME280;7231;59.370;18.016;2023-05-11T07:57:41;102009.34;;;22.08;32.68
14295;BME280;7231;59.370;18.016;2023-05-11T08:00:11;102012.88;;;22.22;32.91
14295;BME280;7231;59.370;18.016;2023-05-11T08:02:39;102010.16;;;22.48;32.84
14295;BME280;7231;59.370;18.016;2023-05-11T08:05:08;102005.69;;;22.58;32.22
14295;BME280;7231;59.370;18.016;2023-05-11T08:07:36;102011.88;;;22.83;31.74
14295;BME280;7231;59.370;18.016;2023-05-11T08:10:07;102009.97;;;23.06;31.23
14295;BME280;7231;59.370;18.016;2023-05-11T08:12:36;101945.00;;;22.75;30.73
14295;BME280;7231;59.370;18.016;2023-05-11T08:15:04;102010.88;;;23.04;30.64
14295;BME280;7231;59.370;18.016;2023-05-11T08:17:34;102006.28;;;23.28;30.62
14295;BME280;7231;59.370;18.016;2023-05-11T08:20:04;101999.84;;;23.60;30.54
14295;BME280;7231;59.370;18.016;2023-05-11T08:22:32;102011.28;;;23.82;30.56
14295;BME280;7231;59.370;18.016;2023-05-11T08:25:00;102022.53;;;24.26;29.66
14295;BME280;7231;59.370;18.016;2023-05-11T08:27:29;102016.72;;;24.66;29.31
14295;BME280;7231;59.370;18.016;2023-05-11T08:29:57;102006.25;;;24.43;28.53
14295;BME280;7231;59.370;18.016;2023-05-11T08:32:27;102019.81;;;24.25;28.73
14295;BME280;7231;59.370;18.016;2023-05-11T08:34:57;102025.94;;;24.42;28.69
14295;BME280;7231;59.370;18.016;2023-05-11T08:37:25;102011.53;;;24.51;28.33
14295;BME280;7231;59.370;18.016;2023-05-11T08:39:53;102021.91;;;24.81;28.27
14295;BME280;7231;59.370;18.016;2023-05-11T08:42:23;102011.50;;;24.54;26.98
14295;BME280;7231;59.370;18.016;2023-05-11T08:44:53;102028.75;;;24.25;27.14
14295;BME280;7231;59.370;18.016;2023-05-11T08:47:22;102000.50;;;23.88;26.73
14295;BME280;7231;59.370;18.016;2023-05-11T08:49:51;102012.09;;;23.90;26.89
14295;BME280;7231;59.370;18.016;2023-05-11T08:52:20;102019.97;;;24.10;27.43
14295;BME280;7231;59.370;18.016;2023-05-11T08:54:49;102027.06;;;24.14;27.08
14295;BME280;7231;59.370;18.016;2023-05-11T08:57:19;102016.38;;;24.11;26.88
14295;BME280;7231;59.370;18.016;2023-05-11T08:59:47;102021.47;;;24.43;26.78
14295;BME280;7231;59.370;18.016;2023-05-11T09:02:17;102014.47;;;24.28;26.06
14295;BME280;7231;59.370;18.016;2023-05-11T09:04:45;102016.28;;;24.20;25.83
14295;BME280;7231;59.370;18.016;2023-05-11T09:07:15;102014.00;;;23.76;25.11
14295;BME280;7231;59.370;18.016;2023-05-11T09:09:46;102019.69;;;23.25;25.32
14295;BME280;7231;59.370;18.016;2023-05-11T09:12:15;102032.25;;;23.13;25.86
14295;BME280;7231;59.370;18.016;2023-05-11T09:14:43;102026.75;;;23.37;26.20
14295;BME280;7231;59.370;18.016;2023-05-11T09:17:12;102031.94;;;23.64;25.57
14295;BME280;7231;59.370;18.016;2023-05-11T09:19:56;102018.19;;;24.09;25.40
14295;BME280;7231;59.370;18.016;2023-05-11T09:22:25;102030.34;;;24.46;25.30
14295;BME280;7231;59.370;18.016;2023-05-11T09:24:58;102028.41;;;24.62;24.60
14295;BME280;7231;59.370;18.016;2023-05-11T09:27:27;102024.91;;;24.54;24.40
14295;BME280;7231;59.370;18.016;2023-05-11T09:29:55;102033.75;;;24.62;24.39
14295;BME280;7231;59.370;18.016;2023-05-11T09:32:23;102021.13;;;24.72;24.25
14295;BME280;7231;59.370;18.016;2023-05-11T09:34:52;102028.53;;;24.50;24.48
14295;BME280;7231;59.370;18.016;2023-05-11T09:37:20;102033.72;;;24.65;24.37
14295;BME280;7231;59.370;18.016;2023-05-11T09:39:52;102034.44;;;24.82;23.61
14295;BME280;7231;59.370;18.016;2023-05-11T09:42:42;102018.63;;;24.58;23.50
14295;BME280;7231;59.370;18.016;2023-05-11T09:45:10;102030.28;;;24.54;23.72
14295;BME280;7231;59.370;18.016;2023-05-11T09:47:38;102033.13;;;24.39;23.11
14295;BME280;7231;59.370;18.016;2023-05-11T09:50:15;102034.00;;;24.39;22.97
14295;BME280;7231;59.370;18.016;2023-05-11T09:52:51;102040.41;;;24.21;22.83
14295;BME280;7231;59.370;18.016;2023-05-11T09:55:19;102034.47;;;23.83;22.90
14295;BME280;7231;59.370;18.016;2023-05-11T09:57:53;102039.00;;;23.75;22.59
14295;BME280;7231;59.370;18.016;2023-05-11T10:00:22;102033.69;;;23.69;23.15
14295;BME280;7231;59.370;18.016;2023-05-11T10:02:58;102021.31;;;23.46;23.42
14295;BME280;7231;59.370;18.016;2023-05-11T10:05:28;102021.44;;;23.34;23.84
14295;BME280;7231;59.370;18.016;2023-05-11T10:07:59;102038.16;;;23.68;23.40
14295;BME280;7231;59.370;18.016;2023-05-11T10:10:30;102037.25;;;23.69;22.88
14295;BME280;7231;59.370;18.016;2023-05-11T10:13:01;102040.84;;;23.68;23.29
14295;BME280;7231;59.370;18.016;2023-05-11T10:15:31;101835.34;;;22.78;22.93
14295;BME280;7231;59.370;18.016;2023-05-11T10:18:03;102000.41;;;23.99;22.73
14295;BME280;7231;59.370;18.016;2023-05-11T10:20:33;102022.28;;;24.51;22.31
14295;BME280;7231;59.370;18.016;2023-05-11T10:23:01;102013.41;;;24.43;22.24
14295;BME280;7231;59.370;18.016;2023-05-11T10:25:29;102047.59;;;24.16;22.34
14295;BME280;7231;59.370;18.016;2023-05-11T10:27:58;102008.53;;;23.88;22.62
14295;BME280;7231;59.370;18.016;2023-05-11T10:30:27;102018.28;;;23.98;22.79
14295;BME280;7231;59.370;18.016;2023-05-11T10:32:56;101997.88;;;23.82;23.04
14295;BME280;7231;59.370;18.016;2023-05-11T10:35:25;102018.00;;;24.30;22.76
14295;BME280;7231;59.370;18.016;2023-05-11T10:37:53;102016.81;;;24.58;22.73
14295;BME280;7231;59.370;18.016;2023-05-11T10:40:21;102019.19;;;24.84;22.02
14295;BME280;7231;59.370;18.016;2023-05-11T10:43:10;102014.09;;;24.62;22.04
14295;BME280;7231;59.370;18.016;2023-05-11T10:45:51;102024.00;;;24.56;21.97
14295;BME280;7231;59.370;18.016;2023-05-11T10:51:40;102029.97;;;23.88;22.86
14295;BME280;7231;59.370;18.016;2023-05-11T10:54:25;101973.81;;;23.76;22.97
14295;BME280;7231;59.370;18.016;2023-05-11T10:57:09;101940.75;;;23.80;22.86
14295;BME280;7231;59.370;18.016;2023-05-11T11:00:01;102017.59;;;23.72;22.70
14295;BME280;7231;59.370;18.016;2023-05-11T11:02:38;102006.16;;;23.42;23.54
14295;BME280;7231;59.370;18.016;2023-05-11T11:05:06;102016.53;;;23.94;23.45
14295;BME280;7231;59.370;18.016;2023-05-11T11:07:58;101966.59;;;23.84;23.08
14295;BME280;7231;59.370;18.016;2023-05-11T11:10:30;102011.06;;;24.08;23.24
14295;BME280;7231;59.370;18.016;2023-05-11T11:13:01;101998.50;;;24.11;23.09
14295;BME280;7231;59.370;18.016;2023-05-11T11:18:32;102017.28;;;24.97;22.49
14295;BME280;7231;59.370;18.016;2023-05-11T11:21:00;102024.81;;;24.63;22.64
14295;BME280;7231;59.370;18.016;2023-05-11T11:23:44;102027.44;;;24.68;22.70
14295;BME280;7231;59.370;18.016;2023-05-11T11:26:17;102019.09;;;24.92;22.68
14295;BME280;7231;59.370;18.016;2023-05-11T11:29:08;102034.16;;;24.21;22.31
14295;BME280;7231;59.370;18.016;2023-05-11T11:31:37;102038.78;;;24.04;22.71
14295;BME280;7231;59.370;18.016;2023-05-11T11:34:33;102044.84;;;24.27;22.66
14295;BME280;7231;59.370;18.016;2023-05-11T11:37:03;102043.63;;;24.60;22.38
14295;BME280;7231;59.370;18.016;2023-05-11T11:39:46;102026.66;;;24.58;22.25
14295;BME280;7231;59.370;18.016;2023-05-11T11:42:16;102013.88;;;24.81;22.10
14295;BME280;7231;59.370;18.016;2023-05-11T11:44:45;102045.88;;;25.00;22.03
14295;BME280;7231;59.370;18.016;2023-05-11T11:47:14;102023.91;;;24.66;21.88
14295;BME280;7231;59.370;18.016;2023-05-11T11:49:45;102021.38;;;24.50;22.16
14295;BME280;7231;59.370;18.016;2023-05-11T11:52:32;102036.31;;;24.74;21.77
14295;BME280;7231;59.370;18.016;2023-05-11T11:55:02;102040.59;;;24.89;22.05
14295;BME280;7231;59.370;18.016;2023-05-11T11:57:43;102039.38;;;25.17;21.84
14295;BME280;7231;59.370;18.016;2023-05-11T12:00:19;102030.72;;;24.92;21.83
14295;BME280;7231;59.370;18.016;2023-05-11T12:02:48;102035.44;;;24.71;21.91
14295;BME280;7231;59.370;18.016;2023-05-11T12:05:18;102048.22;;;25.26;21.99
14295;BME280;7231;59.370;18.016;2023-05-11T12:07:49;102044.53;;;25.34;21.54
14295;BME280;7231;59.370;18.016;2023-05-11T12:10:19;102036.50;;;25.33;21.70
14295;BME280;7231;59.370;18.016;2023-05-11T12:12:48;102043.75;;;25.26;21.14
14295;BME280;7231;59.370;18.016;2023-05-11T12:15:23;102067.16;;;25.13;21.18
14295;BME280;7231;59.370;18.016;2023-05-11T12:17:51;102071.69;;;25.10;21.11
14295;BME280;7231;59.370;18.016;2023-05-11T12:20:21;102032.13;;;24.49;21.15
14295;BME280;7231;59.370;18.016;2023-05-11T12:22:49;102043.69;;;24.52;21.45
14295;BME280;7231;59.370;18.016;2023-05-11T12:25:18;102055.56;;;25.11;21.03
14295;BME280;7231;59.370;18.016;2023-05-11T12:27:48;102044.47;;;25.37;21.10
14295;BME280;7231;59.370;18.016;2023-05-11T12:30:21;102052.16;;;24.97;20.69
14295;BME280;7231;59.370;18.016;2023-05-11T12:32:51;102055.06;;;24.76;21.08
14295;BME280;7231;59.370;18.016;2023-05-11T12:35:26;102061.53;;;24.58;21.22
14295;BME280;7231;59.370;18.016;2023-05-11T12:37:55;102052.34;;;24.80;20.99
14295;BME280;7231;59.370;18.016;2023-05-11T12:40:23;102053.00;;;24.12;21.18
14295;BME280;7231;59.370;18.016;2023-05-11T12:42:53;101937.84;;;22.86;22.26
14295;BME280;7231;59.370;18.016;2023-05-11T12:45:22;102041.44;;;24.05;22.18
14295;BME280;7231;59.370;18.016;2023-05-11T12:47:52;102054.13;;;24.81;21.63
14295;BME280;7231;59.370;18.016;2023-05-11T12:50:21;102062.97;;;24.89;21.41
14295;BME280;7231;59.370;18.016;2023-05-11T12:52:50;102048.72;;;24.83;21.39
14295;BME280;7231;59.370;18.016;2023-05-11T12:55:28;102065.91;;;24.65;21.29
14295;BME280;7231;59.370;18.016;2023-05-11T12:58:06;102041.09;;;24.45;21.41
14295;BME280;7231;59.370;18.016;2023-05-11T13:00:49;102041.91;;;24.54;21.65
14295;BME280;7231;59.370;18.016;2023-05-11T13:03:20;102019.72;;;24.39;21.53
14295;BME280;7231;59.370;18.016;2023-05-11T13:05:48;102028.91;;;24.09;21.85
14295;BME280;7231;59.370;18.016;2023-05-11T13:08:19;102037.06;;;23.95;21.94
14295;BME280;7231;59.370;18.016;2023-05-11T13:10:46;102054.09;;;23.88;22.08
14295;BME280;7231;59.370;18.016;2023-05-11T13:13:25;102034.94;;;24.37;21.92
14295;BME280;7231;59.370;18.016;2023-05-11T13:15:54;102031.91;;;24.67;21.71